createdAt,value
2022-12-25T00:01:45.160Z,11.23
2022-12-25T00:04:12.673Z,9.18
2022-12-25T00:06:40.227Z,9.85
2022-12-25T00:09:08.018Z,14.05
2022-12-25T00:11:35.574Z,9.93
2022-12-25T00:14:03.337Z,12.07
2022-12-25T00:16:31.325Z,10.48
2022-12-25T00:18:59.192Z,8.13
2022-12-25T00:21:26.673Z,14.48
2022-12-25T00:23:55.717Z,13.85
2022-12-25T00:26:23.442Z,14.30
2022-12-25T00:28:58.109Z,8.18
2022-12-25T00:31:26.657Z,6.78
2022-12-25T00:33:54.603Z,10.10
2022-12-25T00:36:23.064Z,9.75
2022-12-25T00:38:50.646Z,9.18
2022-12-25T00:41:41.019Z,6.30
2022-12-25T00:44:10.505Z,10.20
2022-12-25T00:46:38.211Z,6.10
2022-12-25T00:49:06.404Z,10.20
2022-12-25T00:51:33.909Z,8.25
2022-12-25T00:54:01.520Z,9.07
2022-12-25T00:56:29.201Z,7.57
2022-12-25T00:58:56.655Z,7.40
2022-12-25T01:01:24.262Z,14.43
2022-12-25T01:03:51.864Z,7.90
2022-12-25T01:06:19.293Z,4.70
2022-12-25T01:09:15.961Z,5.47
2022-12-25T01:11:43.631Z,9.23
2022-12-25T01:14:11.656Z,13.43
2022-12-25T01:16:39.310Z,5.90
2022-12-25T01:19:06.810Z,10.18
2022-12-25T01:21:34.309Z,7.43
2022-12-25T01:24:02.055Z,7.28
2022-12-25T01:26:29.530Z,8.52
2022-12-25T01:28:57.038Z,8.13
2022-12-25T01:31:25.130Z,5.93
2022-12-25T01:33:53.106Z,6.63
2022-12-25T01:36:25.604Z,15.43
2022-12-25T01:38:53.984Z,8.50
2022-12-25T01:41:23.863Z,10.45
2022-12-25T01:43:57.031Z,9.75
2022-12-25T01:46:24.650Z,12.23
2022-12-25T01:48:53.708Z,5.82
2022-12-25T01:51:49.477Z,9.40
2022-12-25T01:54:31.407Z,6.80
2022-12-25T01:57:02.435Z,6.95
2022-12-25T01:59:30.333Z,11.88
2022-12-25T02:01:59.686Z,7.97
2022-12-25T02:04:39.052Z,9.45
2022-12-25T02:07:19.553Z,17.73
2022-12-25T02:09:47.648Z,10.63
2022-12-25T02:12:25.728Z,11.85
2022-12-25T02:15:02.861Z,12.30
2022-12-25T02:18:07.289Z,11.02
2022-12-25T02:21:01.943Z,11.90
2022-12-25T02:23:38.323Z,12.85
2022-12-25T02:26:30.011Z,4.60
2022-12-25T02:29:07.420Z,11.80
2022-12-25T02:31:46.941Z,9.30
2022-12-25T02:34:21.764Z,14.20
2022-12-25T02:36:55.159Z,12.43
2022-12-25T02:40:00.305Z,13.60
2022-12-25T02:43:16.380Z,10.10
2022-12-25T02:46:28.346Z,9.00
2022-12-25T02:49:18.888Z,6.85
2022-12-25T02:52:17.909Z,9.82
2022-12-25T02:55:15.399Z,10.88
2022-12-25T02:58:05.666Z,9.63
2022-12-25T03:00:55.639Z,9.13
2022-12-25T03:03:47.289Z,18.80
2022-12-25T03:06:35.077Z,11.43
2022-12-25T03:09:22.998Z,16.30
2022-12-25T03:11:58.897Z,12.88
2022-12-25T03:14:45.553Z,11.93
2022-12-25T03:17:13.357Z,9.70
2022-12-25T03:19:59.566Z,13.98
2022-12-25T03:22:48.527Z,15.07
2022-12-25T03:25:36.345Z,9.35
2022-12-25T03:28:05.000Z,13.75
2022-12-25T03:31:12.557Z,15.55
2022-12-25T03:34:23.401Z,10.93
2022-12-25T03:36:59.891Z,15.30
2022-12-25T03:39:53.856Z,11.80
2022-12-25T03:42:49.322Z,12.20
2022-12-25T03:46:00.919Z,12.93
2022-12-25T03:48:49.712Z,12.02
2022-12-25T03:51:39.622Z,11.07
2022-12-25T03:54:30.087Z,8.95
2022-12-25T03:57:16.745Z,12.57
2022-12-25T04:00:02.887Z,13.32
2022-12-25T04:02:56.386Z,14.07
2022-12-25T04:05:42.473Z,16.13
2022-12-25T04:08:28.338Z,12.13
2022-12-25T04:11:14.528Z,12.82
2022-12-25T04:14:00.418Z,24.63
2022-12-25T04:16:46.699Z,11.20
2022-12-25T04:19:32.807Z,11.55
2022-12-25T04:22:18.555Z,10.73
2022-12-25T04:25:04.629Z,12.52
2022-12-25T04:27:50.917Z,13.93
2022-12-25T04:30:36.909Z,13.80
2022-12-25T04:33:22.852Z,10.57
2022-12-25T04:36:08.937Z,10.35
2022-12-25T04:38:37.410Z,11.25
2022-12-25T04:41:05.790Z,9.57
2022-12-25T04:43:33.287Z,14.05
2022-12-25T04:46:02.854Z,10.57
2022-12-25T04:48:33.052Z,11.65
2022-12-25T04:51:16.309Z,13.10
2022-12-25T04:53:46.740Z,14.65
2022-12-25T04:56:15.120Z,11.45
2022-12-25T04:58:43.438Z,13.15
2022-12-25T05:01:11.817Z,9.40
2022-12-25T05:03:40.052Z,11.18
2022-12-25T05:06:08.105Z,13.40
2022-12-25T05:08:37.022Z,17.95
2022-12-25T05:11:13.140Z,10.50
2022-12-25T05:13:41.178Z,13.68
2022-12-25T05:16:12.968Z,11.82
2022-12-25T05:18:40.533Z,12.95
2022-12-25T05:21:09.815Z,10.75
2022-12-25T05:23:37.802Z,15.15
2022-12-25T05:26:07.414Z,10.23
2022-12-25T05:28:35.481Z,19.33
2022-12-25T05:31:03.544Z,10.73
2022-12-25T05:33:31.374Z,6.63
2022-12-25T05:36:01.881Z,17.50
2022-12-25T05:38:29.294Z,12.93
2022-12-25T05:40:56.846Z,14.25
2022-12-25T05:43:24.282Z,13.60
2022-12-25T05:45:51.772Z,12.95
2022-12-25T05:48:19.389Z,17.48
2022-12-25T05:50:47.240Z,16.20
2022-12-25T05:53:16.181Z,15.10
2022-12-25T05:55:44.139Z,11.15
2022-12-25T05:58:13.418Z,11.55
2022-12-25T06:00:43.528Z,17.80
2022-12-25T06:03:11.009Z,13.07
2022-12-25T06:05:39.877Z,12.52
2022-12-25T06:08:07.555Z,7.65
2022-12-25T06:10:36.413Z,9.52
2022-12-25T06:13:04.028Z,15.20
2022-12-25T06:15:31.491Z,15.40
2022-12-25T06:18:02.499Z,18.23
2022-12-25T06:22:57.563Z,22.98
2022-12-25T06:25:25.002Z,9.25
2022-12-25T06:27:52.435Z,14.13
2022-12-25T06:30:20.191Z,15.55
2022-12-25T06:32:47.739Z,15.85
2022-12-25T06:35:15.257Z,12.88
2022-12-25T06:37:42.713Z,9.32
2022-12-25T06:40:10.441Z,15.05
2022-12-25T06:42:37.904Z,11.13
2022-12-25T06:45:05.661Z,15.32
2022-12-25T06:47:33.095Z,12.57
2022-12-25T06:50:00.719Z,12.43
2022-12-25T06:52:28.178Z,17.50
2022-12-25T06:54:55.651Z,15.02
2022-12-25T06:57:23.035Z,13.82
2022-12-25T06:59:55.166Z,19.27
2022-12-25T07:02:24.984Z,16.90
2022-12-25T07:04:53.201Z,16.35
2022-12-25T07:07:22.914Z,22.98
2022-12-25T07:09:50.409Z,25.45
2022-12-25T07:12:23.564Z,11.25
2022-12-25T07:14:53.684Z,14.80
2022-12-25T07:17:22.139Z,11.30
2022-12-25T07:19:50.039Z,21.75
2022-12-25T07:22:18.356Z,17.13
2022-12-25T07:24:45.908Z,15.57
2022-12-25T07:27:13.500Z,14.27
2022-12-25T07:29:40.915Z,16.83
2022-12-25T07:32:09.178Z,12.40
2022-12-25T07:34:36.720Z,16.23
2022-12-25T07:37:04.153Z,16.67
2022-12-25T07:39:31.696Z,10.15
2022-12-25T07:41:59.153Z,14.90
2022-12-25T07:44:28.309Z,14.50
2022-12-25T07:46:55.723Z,14.55
2022-12-25T07:49:23.271Z,11.35
2022-12-25T07:51:50.780Z,18.77
2022-12-25T07:54:18.386Z,11.13
2022-12-25T07:56:46.476Z,15.90
2022-12-25T07:59:13.893Z,12.52
2022-12-25T08:01:41.424Z,14.13
2022-12-25T08:04:11.571Z,15.57
2022-12-25T08:06:39.169Z,12.87
2022-12-25T08:09:12.719Z,7.80
2022-12-25T08:11:45.667Z,10.82
2022-12-25T08:14:13.458Z,14.57
2022-12-25T08:16:42.205Z,10.63
2022-12-25T08:19:10.127Z,13.68
2022-12-25T08:21:38.383Z,9.23
2022-12-25T08:24:06.475Z,15.50
2022-12-25T08:26:34.022Z,7.80
2022-12-25T08:29:01.955Z,11.18
2022-12-25T08:31:30.740Z,12.80
2022-12-25T08:33:58.873Z,13.55
2022-12-25T08:36:26.784Z,15.50
2022-12-25T08:39:02.121Z,10.65
2022-12-25T08:41:31.265Z,17.23
2022-12-25T08:43:58.845Z,13.48
2022-12-25T08:46:26.454Z,15.30
2022-12-25T08:48:53.974Z,8.25
2022-12-25T08:51:22.534Z,18.63
2022-12-25T08:53:52.121Z,20.75
2022-12-25T08:56:20.685Z,9.13
2022-12-25T08:58:48.233Z,13.45
2022-12-25T09:01:15.951Z,15.93
2022-12-25T09:03:43.883Z,11.13
2022-12-25T09:06:14.411Z,17.77
2022-12-25T09:08:48.828Z,14.13
2022-12-25T09:11:19.588Z,10.00
2022-12-25T09:13:47.926Z,14.70
2022-12-25T09:16:20.600Z,15.43
2022-12-25T09:18:48.599Z,13.43
2022-12-25T09:21:17.601Z,14.70
2022-12-25T09:23:45.672Z,13.23
2022-12-25T09:26:16.410Z,15.98
2022-12-25T09:28:50.631Z,9.43
2022-12-25T09:31:20.433Z,12.20
2022-12-25T09:33:49.076Z,12.90
2022-12-25T09:36:16.854Z,10.45
2022-12-25T09:38:44.526Z,10.05
2022-12-25T09:41:28.100Z,10.75
2022-12-25T09:44:06.826Z,9.55
2022-12-25T09:47:01.634Z,11.52
2022-12-25T09:49:54.337Z,9.32
2022-12-25T09:52:44.245Z,14.00
2022-12-25T09:55:19.651Z,12.45
2022-12-25T09:57:54.342Z,13.18
2022-12-25T10:00:24.285Z,11.80
2022-12-25T10:03:13.561Z,12.65
2022-12-25T10:06:08.981Z,13.95
2022-12-25T10:08:47.336Z,10.23
2022-12-25T10:11:45.145Z,8.82
2022-12-25T10:14:50.582Z,6.68
2022-12-25T10:17:18.125Z,8.85
2022-12-25T10:20:19.947Z,7.90
2022-12-25T10:22:52.968Z,15.35
2022-12-25T10:25:23.773Z,7.63
2022-12-25T10:30:26.374Z,8.68
2022-12-25T10:32:57.296Z,5.85
2022-12-25T10:38:00.702Z,10.98
2022-12-25T10:40:40.747Z,7.70
2022-12-25T10:43:12.787Z,6.35
2022-12-25T10:45:45.225Z,6.97
2022-12-25T10:48:33.272Z,7.07
2022-12-25T10:51:01.008Z,7.68
2022-12-25T10:53:37.297Z,8.52
2022-12-25T10:56:06.374Z,13.45
2022-12-25T10:58:34.431Z,15.13
2022-12-25T11:01:06.822Z,8.15
2022-12-25T11:03:38.575Z,12.50
2022-12-25T11:06:07.494Z,7.47
2022-12-25T11:08:35.104Z,11.18
2022-12-25T11:11:08.641Z,9.02
2022-12-25T11:13:40.631Z,10.63
2022-12-25T11:16:25.720Z,7.75
2022-12-25T11:18:54.865Z,11.52
2022-12-25T11:21:30.358Z,6.18
2022-12-25T11:24:03.733Z,8.93
2022-12-25T11:26:36.853Z,11.15
2022-12-25T11:29:14.320Z,12.82
2022-12-25T11:31:43.447Z,12.02
2022-12-25T11:34:17.806Z,10.10
2022-12-25T11:36:47.984Z,9.07
2022-12-25T11:39:29.177Z,12.87
2022-12-25T11:42:19.597Z,6.95
2022-12-25T11:44:56.445Z,14.55
2022-12-25T11:47:36.603Z,10.90
2022-12-25T11:50:43.844Z,4.70
2022-12-25T11:53:22.150Z,11.23
2022-12-25T11:55:55.101Z,8.32
2022-12-25T11:58:44.605Z,10.98
2022-12-25T12:01:39.956Z,3.17
2022-12-25T12:04:29.460Z,6.30
2022-12-25T12:07:13.307Z,5.65
2022-12-25T12:09:50.893Z,8.38
2022-12-25T12:12:36.903Z,7.05
2022-12-25T12:15:04.329Z,10.82
2022-12-25T12:17:32.640Z,7.15
2022-12-25T12:20:11.879Z,8.88
2022-12-25T12:22:39.978Z,8.88
2022-12-25T12:25:08.096Z,8.30
2022-12-25T12:27:38.993Z,4.22
2022-12-25T12:30:22.112Z,7.57
2022-12-25T12:32:59.880Z,6.45
2022-12-25T12:35:38.719Z,4.47
2022-12-25T12:38:20.550Z,5.47
2022-12-25T12:41:07.663Z,4.38
2022-12-25T12:43:47.766Z,5.70
2022-12-25T12:46:36.334Z,4.18
2022-12-25T12:49:11.511Z,3.47
2022-12-25T12:51:39.955Z,7.63
2022-12-25T12:54:20.953Z,2.30
2022-12-25T12:59:26.149Z,3.17
2022-12-25T13:01:53.711Z,9.57
2022-12-25T13:04:44.177Z,5.32
2022-12-25T13:07:17.418Z,5.57
2022-12-25T13:10:13.695Z,9.38
2022-12-25T13:12:41.372Z,6.13
2022-12-25T13:15:13.794Z,6.65
2022-12-25T13:17:45.149Z,2.90
2022-12-25T13:20:24.963Z,7.45
2022-12-25T13:22:53.152Z,8.15
2022-12-25T13:25:22.443Z,9.52
2022-12-25T13:27:57.745Z,3.92
2022-12-25T13:30:25.972Z,6.57
2022-12-25T13:32:53.738Z,4.80
2022-12-25T13:35:23.316Z,6.13
2022-12-25T13:37:51.057Z,11.38
2022-12-25T13:40:27.921Z,10.45
2022-12-25T13:43:00.916Z,9.68
2022-12-25T13:45:30.522Z,8.60
2022-12-25T13:47:58.620Z,8.20
2022-12-25T13:50:29.163Z,6.50
2022-12-25T13:53:09.604Z,9.90
2022-12-25T13:55:37.415Z,4.20
2022-12-25T13:58:06.721Z,9.40
2022-12-25T14:00:49.911Z,5.13
2022-12-25T14:03:21.914Z,6.55
2022-12-25T14:06:06.800Z,5.45
2022-12-25T14:08:35.845Z,8.48
2022-12-25T14:11:06.216Z,4.72
2022-12-25T14:13:37.659Z,7.47
2022-12-25T14:16:06.317Z,3.20
2022-12-25T14:18:34.406Z,8.45
2022-12-25T14:21:08.090Z,7.55
2022-12-25T14:23:45.856Z,9.25
2022-12-25T14:26:28.636Z,5.57
2022-12-25T14:29:17.650Z,4.13
2022-12-25T14:31:47.420Z,4.38
2022-12-25T14:34:23.134Z,5.97
2022-12-25T14:36:52.676Z,9.48
2022-12-25T14:39:28.313Z,7.28
2022-12-25T14:41:56.260Z,4.85
2022-12-25T14:44:41.279Z,5.97
2022-12-25T14:47:16.823Z,4.97
2022-12-25T14:49:45.360Z,5.88
2022-12-25T14:52:17.952Z,5.68
2022-12-25T14:54:48.705Z,7.90
2022-12-25T14:57:37.478Z,5.03
2022-12-25T15:00:20.065Z,5.70
2022-12-25T15:02:48.661Z,9.48
2022-12-25T15:05:42.979Z,5.30
2022-12-25T15:08:13.326Z,5.45
2022-12-25T15:13:30.265Z,6.60
2022-12-25T15:16:08.930Z,12.13
2022-12-25T15:18:43.623Z,9.77
2022-12-25T15:21:17.201Z,13.60
2022-12-25T15:23:44.823Z,21.17
2022-12-25T15:26:14.060Z,10.38
2022-12-25T15:28:41.885Z,13.98
2022-12-25T15:31:22.246Z,18.13
2022-12-25T15:33:49.791Z,14.18
2022-12-25T15:36:17.364Z,13.30
2022-12-25T15:38:45.177Z,11.27
2022-12-25T15:41:38.300Z,8.80
2022-12-25T15:44:07.138Z,13.70
2022-12-25T15:46:35.220Z,12.23
2022-12-25T15:49:02.928Z,7.97
2022-12-25T15:51:30.477Z,6.40
2022-12-25T15:53:59.032Z,12.55
2022-12-25T15:56:27.083Z,10.85
2022-12-25T15:58:54.687Z,4.07
2022-12-25T16:01:22.333Z,8.07
2022-12-25T16:03:49.944Z,7.50
2022-12-25T16:06:18.481Z,7.72
2022-12-25T16:08:46.228Z,5.13
2022-12-25T16:11:13.732Z,5.93
2022-12-25T16:13:41.404Z,5.13
2022-12-25T16:16:08.959Z,5.78
2022-12-25T16:18:37.315Z,5.18
2022-12-25T16:21:12.429Z,6.57
2022-12-25T16:23:40.184Z,3.45
2022-12-25T16:26:07.632Z,5.38
2022-12-25T16:28:35.088Z,7.75
2022-12-25T16:31:02.887Z,6.60
2022-12-25T16:33:30.672Z,7.28
2022-12-25T16:35:58.553Z,5.30
2022-12-25T16:38:26.024Z,6.15
2022-12-25T16:40:59.003Z,4.78
2022-12-25T16:43:26.998Z,6.13
2022-12-25T16:45:54.870Z,4.28
2022-12-25T16:48:22.498Z,8.00
2022-12-25T16:50:49.938Z,6.38
2022-12-25T16:53:17.362Z,5.75
2022-12-25T16:55:44.996Z,4.05
2022-12-25T16:58:12.743Z,9.68
2022-12-25T17:00:44.276Z,5.07
2022-12-25T17:03:16.666Z,3.90
2022-12-25T17:05:44.405Z,4.43
2022-12-25T17:08:11.861Z,5.45
2022-12-25T17:10:39.507Z,7.65
2022-12-25T17:13:07.020Z,6.68
2022-12-25T17:15:34.421Z,4.55
2022-12-25T17:18:01.796Z,3.83
2022-12-25T17:20:29.191Z,4.43
2022-12-25T17:22:57.824Z,4.32
2022-12-25T17:25:25.431Z,6.15
2022-12-25T17:27:53.188Z,3.97
2022-12-25T17:30:20.658Z,9.60
2022-12-25T17:32:48.097Z,6.25
2022-12-25T17:35:15.892Z,8.90
2022-12-25T17:37:43.584Z,4.95
2022-12-25T17:40:11.461Z,6.93
2022-12-25T17:42:39.323Z,14.10
2022-12-25T17:45:07.460Z,5.35
2022-12-25T17:47:35.049Z,10.07
2022-12-25T17:50:02.701Z,11.25
2022-12-25T17:52:30.155Z,12.20
2022-12-25T17:54:57.830Z,14.43
2022-12-25T17:57:25.495Z,10.00
2022-12-25T17:59:53.107Z,9.30
2022-12-25T18:02:20.730Z,8.30
2022-12-25T18:04:48.350Z,9.73
2022-12-25T18:07:15.929Z,8.38
2022-12-25T18:09:44.061Z,5.78
2022-12-25T18:12:11.602Z,10.32
2022-12-25T18:14:39.083Z,4.90
2022-12-25T18:17:07.151Z,5.13
2022-12-25T18:19:34.987Z,5.97
2022-12-25T18:22:02.430Z,9.07
2022-12-25T18:24:29.890Z,3.55
2022-12-25T18:26:57.718Z,4.25
2022-12-25T18:29:25.164Z,6.40
2022-12-25T18:31:52.731Z,7.10
2022-12-25T18:34:23.318Z,5.85
2022-12-25T18:36:50.964Z,4.32
2022-12-25T18:39:18.380Z,4.25
2022-12-25T18:42:04.235Z,8.82
2022-12-25T18:44:31.872Z,2.95
2022-12-25T18:46:59.616Z,4.63
2022-12-25T18:49:27.117Z,5.03
2022-12-25T18:51:54.714Z,4.68
2022-12-25T18:54:42.169Z,5.35
2022-12-25T18:57:09.921Z,3.80
2022-12-25T18:59:37.623Z,2.72
2022-12-25T19:02:05.127Z,4.20
2022-12-25T19:04:32.622Z,3.00
2022-12-25T19:07:00.724Z,4.10
2022-12-25T19:09:28.238Z,4.38
2022-12-25T19:11:55.927Z,4.10
2022-12-25T19:14:25.888Z,3.05
2022-12-25T19:16:54.249Z,16.05
2022-12-25T19:19:23.246Z,8.70
2022-12-25T19:21:57.983Z,5.45
2022-12-25T19:24:25.507Z,5.55
2022-12-25T19:26:52.971Z,5.63
2022-12-25T19:29:20.470Z,2.40
2022-12-25T19:31:47.929Z,3.00
2022-12-25T19:34:15.757Z,3.53
2022-12-25T19:36:43.195Z,3.35
2022-12-25T19:39:12.139Z,3.22
2022-12-25T19:41:40.126Z,1.58
2022-12-25T19:44:08.203Z,1.88
2022-12-25T19:46:38.201Z,1.27
2022-12-25T19:49:06.179Z,1.20
2022-12-25T19:51:37.634Z,3.70
2022-12-25T19:54:06.645Z,1.40
2022-12-25T19:56:34.865Z,4.93
2022-12-25T19:59:02.348Z,9.70
2022-12-25T20:01:31.124Z,3.10
2022-12-25T20:03:59.158Z,2.75
2022-12-25T20:06:32.529Z,1.92
2022-12-25T20:09:06.218Z,4.78
2022-12-25T20:11:35.455Z,3.78
2022-12-25T20:14:03.552Z,5.50
2022-12-25T20:16:31.624Z,2.80
2022-12-25T20:18:59.304Z,6.25
2022-12-25T20:21:27.372Z,8.02
2022-12-25T20:23:55.768Z,6.63
2022-12-25T20:26:27.982Z,8.07
2022-12-25T20:28:55.633Z,8.32
2022-12-25T20:31:31.445Z,11.18
2022-12-25T20:34:04.117Z,6.28
2022-12-25T20:36:36.828Z,8.77
2022-12-25T20:39:09.413Z,7.75
2022-12-25T20:41:38.684Z,9.63
2022-12-25T20:44:08.459Z,8.07
2022-12-25T20:46:36.647Z,7.88
2022-12-25T20:49:04.276Z,8.73
2022-12-25T20:51:31.861Z,8.13
2022-12-25T20:53:59.242Z,5.82
2022-12-25T20:56:27.457Z,10.80
2022-12-25T20:58:56.096Z,11.45
2022-12-25T21:01:24.325Z,8.68
2022-12-25T21:03:52.517Z,7.95
2022-12-25T21:06:20.309Z,6.78
2022-12-25T21:08:48.368Z,9.25
2022-12-25T21:11:17.592Z,8.55
2022-12-25T21:13:46.706Z,12.10
2022-12-25T21:16:18.574Z,6.90
2022-12-25T21:18:47.023Z,10.73
2022-12-25T21:21:15.356Z,7.32
2022-12-25T21:23:43.186Z,11.23
2022-12-25T21:26:19.003Z,11.70
2022-12-25T21:28:48.155Z,11.43
2022-12-25T21:31:15.999Z,14.02
2022-12-25T21:33:52.842Z,11.93
2022-12-25T21:36:30.607Z,9.95
2022-12-25T21:39:04.428Z,13.45
2022-12-25T21:41:34.183Z,11.32
2022-12-25T21:44:01.766Z,11.93
2022-12-25T21:46:29.481Z,13.82
2022-12-25T21:48:58.002Z,10.85
2022-12-25T21:51:49.740Z,16.45
2022-12-25T21:54:18.935Z,10.57
2022-12-25T21:56:47.708Z,9.15
2022-12-25T21:59:18.444Z,13.07
2022-12-25T22:01:47.301Z,11.43
2022-12-25T22:04:16.645Z,13.25
2022-12-25T22:07:06.751Z,9.05
2022-12-25T22:09:34.204Z,20.15
2022-12-25T22:12:20.362Z,16.40
2022-12-25T22:14:54.901Z,8.68
2022-12-25T22:17:44.740Z,7.88
2022-12-25T22:20:37.491Z,17.17
2022-12-25T22:23:05.171Z,15.65
2022-12-25T22:25:32.532Z,17.65
2022-12-25T22:28:00.339Z,15.50
2022-12-25T22:30:29.633Z,15.52
2022-12-25T22:32:57.618Z,13.02
2022-12-25T22:35:25.189Z,12.10
2022-12-25T22:37:54.010Z,12.07
2022-12-25T22:40:21.765Z,13.75
2022-12-25T22:42:49.210Z,8.32
2022-12-25T22:45:17.154Z,17.63
2022-12-25T22:47:44.763Z,13.95
2022-12-25T22:50:14.826Z,10.55
2022-12-25T22:52:42.729Z,7.70
2022-12-25T22:55:10.677Z,12.68
2022-12-25T22:57:38.192Z,12.82
2022-12-25T23:00:08.776Z,14.10
2022-12-25T23:02:36.765Z,12.05
2022-12-25T23:05:04.655Z,7.50
2022-12-25T23:07:32.540Z,16.95
2022-12-25T23:09:59.961Z,13.73
2022-12-25T23:12:46.207Z,16.80
2022-12-25T23:15:13.678Z,13.38
2022-12-25T23:17:59.785Z,21.02
2022-12-25T23:20:45.899Z,17.13
2022-12-25T23:23:34.620Z,13.60
2022-12-25T23:26:09.217Z,7.80
2022-12-25T23:28:57.466Z,19.00
2022-12-25T23:31:32.284Z,14.77
2022-12-25T23:34:00.371Z,23.92
2022-12-25T23:36:29.205Z,19.33
2022-12-25T23:38:59.231Z,14.70
2022-12-25T23:41:29.185Z,18.83
2022-12-25T23:43:56.952Z,13.85
2022-12-25T23:46:24.547Z,34.13
2022-12-25T23:48:52.299Z,20.73
2022-12-25T23:51:19.817Z,13.68
2022-12-25T23:53:48.974Z,17.52
2022-12-25T23:56:16.535Z,20.83
2022-12-25T23:58:51.317Z,23.02
